createdAt,value
2022-10-23T00:00:21.808Z,10.52
2022-10-23T00:03:23.272Z,10.50
2022-10-23T00:06:25.397Z,10.49
2022-10-23T00:09:26.730Z,10.45
2022-10-23T00:12:28.088Z,10.42
2022-10-23T00:15:29.434Z,10.39
2022-10-23T00:18:31.065Z,10.38
2022-10-23T00:21:32.466Z,10.37
2022-10-23T00:24:34.166Z,10.36
2022-10-23T00:27:35.717Z,10.37
2022-10-23T00:30:37.148Z,10.36
2022-10-23T00:33:38.633Z,10.35
2022-10-23T00:36:41.188Z,10.36
2022-10-23T00:39:43.024Z,10.33
2022-10-23T00:42:44.466Z,10.31
2022-10-23T00:45:46.026Z,10.30
2022-10-23T00:48:47.357Z,10.29
2022-10-23T00:52:04.950Z,10.24
2022-10-23T00:55:06.614Z,10.25
2022-10-23T00:58:09.036Z,10.25
2022-10-23T01:01:22.057Z,10.19
2022-10-23T01:04:24.594Z,10.18
2022-10-23T01:07:33.667Z,10.18
2022-10-23T01:10:44.081Z,10.16
2022-10-23T01:13:57.762Z,10.16
2022-10-23T01:17:14.107Z,10.16
2022-10-23T01:20:29.652Z,10.15
2022-10-23T01:23:30.923Z,10.09
2022-10-23T01:27:31.528Z,9.98
2022-10-23T01:33:54.856Z,9.91
2022-10-23T01:37:03.811Z,9.81
2022-10-23T01:40:09.726Z,9.74
2022-10-23T01:43:35.893Z,9.65
2022-10-23T01:46:39.485Z,9.62
2022-10-23T01:49:44.468Z,9.57
2022-10-23T01:52:45.985Z,9.52
2022-10-23T01:55:49.303Z,9.52
2022-10-23T01:58:59.869Z,9.49
2022-10-23T02:02:06.765Z,9.43
2022-10-23T02:05:28.774Z,9.33
2022-10-23T02:08:32.238Z,9.34
2022-10-23T02:11:42.361Z,9.36
2022-10-23T02:15:16.179Z,9.31
2022-10-23T02:18:32.167Z,9.27
2022-10-23T02:21:43.154Z,9.28
2022-10-23T02:24:51.155Z,9.27
2022-10-23T02:27:58.042Z,9.20
2022-10-23T02:31:09.935Z,9.13
2022-10-23T02:34:11.524Z,9.10
2022-10-23T02:37:12.975Z,9.05
2022-10-23T02:40:14.448Z,9.00
2022-10-23T02:43:27.583Z,8.92
2022-10-23T02:46:39.023Z,8.88
2022-10-23T02:50:08.458Z,8.86
2022-10-23T02:53:30.569Z,8.80
2022-10-23T02:56:38.568Z,8.85
2022-10-23T03:00:12.883Z,8.83
2022-10-23T03:03:24.605Z,8.77
2022-10-23T03:06:26.027Z,8.76
2022-10-23T03:09:27.422Z,8.71
2022-10-23T03:12:28.812Z,8.72
2022-10-23T03:15:30.712Z,8.71
2022-10-23T03:18:32.196Z,8.69
2022-10-23T03:21:34.884Z,8.59
2022-10-23T03:24:38.129Z,8.59
2022-10-23T03:27:39.649Z,8.58
2022-10-23T03:30:44.536Z,8.55
2022-10-23T03:33:45.874Z,8.54
2022-10-23T03:36:47.302Z,8.51
2022-10-23T03:39:49.649Z,8.49
2022-10-23T03:42:51.050Z,8.48
2022-10-23T03:45:56.754Z,8.47
2022-10-23T03:49:00.401Z,8.44
2022-10-23T03:52:01.804Z,8.42
2022-10-23T03:55:04.118Z,8.38
2022-10-23T03:58:05.490Z,8.39
2022-10-23T04:01:06.954Z,8.42
2022-10-23T04:04:11.958Z,8.43
2022-10-23T04:07:16.075Z,8.45
2022-10-23T04:10:17.806Z,8.46
2022-10-23T04:13:19.123Z,8.45
2022-10-23T04:16:20.482Z,8.38
2022-10-23T04:19:21.851Z,8.32
2022-10-23T04:22:25.937Z,8.31
2022-10-23T04:25:29.235Z,8.30
2022-10-23T04:28:30.579Z,8.28
2022-10-23T04:31:32.009Z,8.25
2022-10-23T04:34:33.447Z,8.22
2022-10-23T04:37:34.889Z,8.16
2022-10-23T04:40:36.347Z,8.15
2022-10-23T04:43:37.946Z,8.17
2022-10-23T04:46:39.420Z,8.20
2022-10-23T04:49:41.156Z,8.21
2022-10-23T04:52:57.576Z,8.26
2022-10-23T04:56:13.605Z,8.26
2022-10-23T04:59:25.059Z,8.25
2022-10-23T05:02:26.694Z,8.21
2022-10-23T05:05:28.929Z,8.17
2022-10-23T05:08:59.303Z,8.09
2022-10-23T05:12:19.394Z,8.03
2022-10-23T05:15:22.443Z,7.98
2022-10-23T05:18:35.536Z,7.94
2022-10-23T05:21:39.177Z,7.92
2022-10-23T05:24:41.432Z,7.89
2022-10-23T05:27:43.112Z,7.89
2022-10-23T05:30:47.392Z,7.85
2022-10-23T05:33:53.980Z,7.79
2022-10-23T05:36:56.688Z,7.75
2022-10-23T05:39:58.834Z,7.70
2022-10-23T05:43:00.884Z,7.69
2022-10-23T05:46:15.297Z,7.66
2022-10-23T05:49:27.641Z,7.65
2022-10-23T05:52:49.176Z,7.70
2022-10-23T05:56:11.309Z,7.70
2022-10-23T05:59:22.135Z,7.72
2022-10-23T06:02:24.732Z,7.74
2022-10-23T06:08:55.842Z,7.82
2022-10-23T06:11:57.607Z,7.89
2022-10-23T06:14:59.079Z,7.94
2022-10-23T06:18:12.389Z,7.96
2022-10-23T06:21:25.046Z,8.00
2022-10-23T06:24:27.446Z,8.07
2022-10-23T06:27:36.307Z,8.13
2022-10-23T06:30:39.454Z,8.16
2022-10-23T06:33:41.731Z,8.23
2022-10-23T06:36:44.271Z,8.24
2022-10-23T06:40:08.846Z,8.23
2022-10-23T06:43:26.603Z,8.24
2022-10-23T06:46:49.269Z,8.25
2022-10-23T06:50:16.385Z,8.28
2022-10-23T06:53:19.411Z,8.33
2022-10-23T06:56:26.631Z,8.43
2022-10-23T06:59:28.239Z,8.55
2022-10-23T07:02:29.680Z,8.67
2022-10-23T07:05:33.371Z,8.78
2022-10-23T07:08:35.374Z,8.90
2022-10-23T07:11:42.228Z,8.97
2022-10-23T07:14:43.636Z,9.01
2022-10-23T07:17:45.065Z,9.07
2022-10-23T07:20:46.909Z,9.12
2022-10-23T07:23:48.260Z,9.14
2022-10-23T07:29:52.660Z,9.19
2022-10-23T07:32:54.109Z,9.23
2022-10-23T07:36:15.744Z,9.34
2022-10-23T07:39:17.156Z,9.49
2022-10-23T07:42:25.300Z,9.63
2022-10-23T07:45:26.765Z,9.71
2022-10-23T07:48:28.697Z,9.84
2022-10-23T07:51:33.217Z,9.94
2022-10-23T07:54:35.397Z,10.11
2022-10-23T07:57:42.392Z,10.25
2022-10-23T08:00:57.287Z,10.39
2022-10-23T08:04:05.261Z,10.60
2022-10-23T08:07:08.449Z,10.75
2022-10-23T08:10:15.890Z,10.88
2022-10-23T08:13:24.501Z,11.04
2022-10-23T08:16:40.754Z,11.31
2022-10-23T08:19:50.789Z,11.36
2022-10-23T08:22:53.631Z,11.41
2022-10-23T08:26:01.121Z,11.50
2022-10-23T08:29:05.225Z,11.55
2022-10-23T08:32:06.574Z,11.54
2022-10-23T08:35:20.370Z,11.55
2022-10-23T08:38:21.963Z,11.65
2022-10-23T08:41:33.764Z,11.77
2022-10-23T08:45:03.726Z,11.86
2022-10-23T08:48:21.039Z,11.92
2022-10-23T08:52:09.188Z,11.92
2022-10-23T08:55:26.623Z,12.03
2022-10-23T08:58:39.185Z,12.08
2022-10-23T09:01:46.368Z,12.19
2022-10-23T09:04:51.639Z,12.22
2022-10-23T09:08:04.738Z,12.29
2022-10-23T09:11:27.343Z,12.34
2022-10-23T09:14:28.700Z,12.51
2022-10-23T09:17:36.827Z,12.61
2022-10-23T09:20:40.281Z,12.69
2022-10-23T09:23:42.058Z,12.76
2022-10-23T09:26:48.944Z,12.89
2022-10-23T09:29:53.213Z,12.91
2022-10-23T09:32:54.581Z,13.02
2022-10-23T09:36:01.921Z,13.08
2022-10-23T09:39:03.328Z,13.14
2022-10-23T09:42:25.747Z,13.18
2022-10-23T09:45:35.856Z,13.28
2022-10-23T09:48:41.525Z,13.34
2022-10-23T09:51:54.189Z,13.29
2022-10-23T09:55:01.688Z,13.36
2022-10-23T09:58:03.065Z,13.53
2022-10-23T10:01:05.169Z,13.62
2022-10-23T10:04:37.401Z,13.75
2022-10-23T10:07:38.806Z,13.98
2022-10-23T10:10:47.590Z,14.05
2022-10-23T10:14:06.022Z,14.06
2022-10-23T10:17:29.138Z,14.11
2022-10-23T10:20:54.119Z,14.21
2022-10-23T10:24:05.710Z,14.19
2022-10-23T10:27:36.834Z,14.25
2022-10-23T10:31:09.183Z,14.34
2022-10-23T10:34:44.934Z,14.36
2022-10-23T10:38:01.483Z,14.55
2022-10-23T10:41:22.502Z,14.59
2022-10-23T10:44:48.271Z,14.57
2022-10-23T10:55:12.729Z,14.72
2022-10-23T11:02:13.749Z,14.98
2022-10-23T11:05:37.966Z,14.95
2022-10-23T11:08:56.083Z,15.00
2022-10-23T11:15:40.632Z,15.07
2022-10-23T11:18:46.472Z,15.07
2022-10-23T11:22:20.776Z,15.06
2022-10-23T11:25:26.405Z,15.11
2022-10-23T11:28:43.002Z,15.03
2022-10-23T11:31:59.896Z,15.02
2022-10-23T11:35:25.673Z,15.12
2022-10-23T11:38:33.310Z,15.26
2022-10-23T11:41:34.692Z,15.34
2022-10-23T11:44:46.478Z,15.52
2022-10-23T11:48:02.681Z,15.76
2022-10-23T11:51:05.235Z,15.66
2022-10-23T11:54:12.506Z,15.44
2022-10-23T11:57:16.693Z,15.46
2022-10-23T12:00:22.392Z,15.54
2022-10-23T12:03:50.910Z,15.58
2022-10-23T12:06:55.951Z,15.72
2022-10-23T12:10:00.127Z,15.92
2022-10-23T12:13:04.478Z,15.90
2022-10-23T12:16:07.122Z,15.97
2022-10-23T12:19:23.358Z,15.95
2022-10-23T12:22:32.570Z,16.00
2022-10-23T12:25:55.768Z,15.98
2022-10-23T12:29:18.963Z,16.01
2022-10-23T12:32:39.129Z,15.87
2022-10-23T12:35:43.228Z,15.89
2022-10-23T12:38:48.358Z,15.94
2022-10-23T12:41:49.815Z,16.00
2022-10-23T12:44:59.619Z,16.03
2022-10-23T12:48:00.991Z,15.95
2022-10-23T12:51:02.359Z,15.93
2022-10-23T12:54:14.440Z,15.93
2022-10-23T12:57:29.351Z,15.89
2022-10-23T13:00:30.717Z,15.87
2022-10-23T13:03:33.741Z,15.83
2022-10-23T13:06:35.174Z,15.57
2022-10-23T13:09:40.797Z,15.69
2022-10-23T13:12:59.405Z,15.61
2022-10-23T13:16:00.784Z,15.56
2022-10-23T13:19:02.175Z,15.53
2022-10-23T13:22:15.773Z,15.50
2022-10-23T13:25:24.641Z,15.46
2022-10-23T13:28:35.043Z,15.46
2022-10-23T13:31:36.892Z,15.43
2022-10-23T13:34:38.506Z,15.39
2022-10-23T13:37:39.909Z,15.44
2022-10-23T13:40:41.298Z,15.43
2022-10-23T13:43:44.397Z,15.40
2022-10-23T13:46:45.845Z,15.24
2022-10-23T13:49:47.197Z,15.35
2022-10-23T13:52:48.550Z,15.40
2022-10-23T13:55:52.541Z,15.40
2022-10-23T13:58:57.423Z,15.36
2022-10-23T14:01:59.020Z,15.35
2022-10-23T14:05:00.470Z,15.32
2022-10-23T14:08:01.829Z,15.29
2022-10-23T14:11:03.202Z,15.26
2022-10-23T14:14:04.579Z,15.27
2022-10-23T14:17:05.900Z,15.29
2022-10-23T14:20:08.074Z,15.28
2022-10-23T14:23:09.482Z,15.21
2022-10-23T14:26:14.044Z,15.22
2022-10-23T14:29:22.850Z,15.24
2022-10-23T14:32:25.532Z,15.24
2022-10-23T14:35:26.923Z,15.23
2022-10-23T14:38:28.464Z,15.20
2022-10-23T14:41:31.232Z,15.18
2022-10-23T14:44:32.614Z,15.19
2022-10-23T14:47:34.056Z,15.24
2022-10-23T14:50:37.760Z,15.15
2022-10-23T14:53:39.093Z,15.06
2022-10-23T14:56:40.425Z,15.03
2022-10-23T14:59:42.461Z,15.02
2022-10-23T15:02:44.006Z,15.03
2022-10-23T15:05:45.463Z,14.93
2022-10-23T15:08:52.911Z,14.91
2022-10-23T15:11:54.238Z,14.88
2022-10-23T15:14:55.707Z,14.82
2022-10-23T15:17:57.637Z,14.74
2022-10-23T15:20:59.360Z,14.75
2022-10-23T15:24:01.433Z,14.67
2022-10-23T15:27:02.878Z,14.60
2022-10-23T15:30:04.701Z,14.58
2022-10-23T15:33:06.023Z,14.56
2022-10-23T15:36:07.500Z,14.53
2022-10-23T15:39:10.732Z,14.47
2022-10-23T15:42:12.085Z,14.39
2022-10-23T15:45:13.436Z,14.34
2022-10-23T15:48:14.780Z,14.28
2022-10-23T15:51:16.480Z,14.23
2022-10-23T15:54:19.916Z,14.22
2022-10-23T15:57:21.304Z,14.19
2022-10-23T16:00:22.742Z,14.19
2022-10-23T16:03:24.175Z,14.17
2022-10-23T16:19:52.925Z,14.12
2022-10-23T16:22:54.370Z,14.14
2022-10-23T16:25:55.739Z,14.12
2022-10-23T16:29:02.477Z,14.12
2022-10-23T16:32:04.006Z,14.10
2022-10-23T16:35:08.705Z,14.06
2022-10-23T16:38:24.283Z,14.02
2022-10-23T16:41:25.666Z,14.00
2022-10-23T16:51:26.343Z,13.85
2022-10-23T16:54:27.701Z,13.82
2022-10-23T17:04:18.964Z,13.69
2022-10-23T17:13:37.287Z,13.62
2022-10-23T17:16:44.764Z,13.59
2022-10-23T17:19:46.786Z,13.54
2022-10-23T17:22:48.349Z,13.51
2022-10-23T17:25:49.722Z,13.48
2022-10-23T17:28:51.086Z,13.44
2022-10-23T17:31:52.453Z,13.41
2022-10-23T17:34:53.809Z,13.41
2022-10-23T17:37:55.168Z,13.37
2022-10-23T17:40:56.670Z,13.35
2022-10-23T17:43:59.244Z,13.39
2022-10-23T17:47:00.601Z,13.38
2022-10-23T17:50:01.975Z,13.41
2022-10-23T17:53:03.412Z,13.38
2022-10-23T17:56:07.532Z,13.37
2022-10-23T17:59:13.508Z,13.37
2022-10-23T18:02:14.996Z,13.38
2022-10-23T18:05:19.281Z,13.40
2022-10-23T18:08:20.616Z,13.40
2022-10-23T18:11:33.533Z,13.38
2022-10-23T18:14:37.463Z,13.38
2022-10-23T18:17:39.161Z,13.40
2022-10-23T18:20:40.948Z,13.41
2022-10-23T18:23:42.358Z,13.40
2022-10-23T18:26:44.229Z,13.37
2022-10-23T18:29:45.537Z,13.36
2022-10-23T18:32:46.885Z,13.35
2022-10-23T18:35:48.669Z,13.32
2022-10-23T18:38:50.763Z,13.29
2022-10-23T18:41:55.847Z,13.25
2022-10-23T18:44:57.206Z,13.22
2022-10-23T18:47:58.886Z,13.20
2022-10-23T18:51:00.271Z,13.21
2022-10-23T18:54:03.707Z,13.20
2022-10-23T18:57:05.106Z,13.17
2022-10-23T19:00:11.571Z,13.16
2022-10-23T19:03:15.169Z,13.15
2022-10-23T19:06:17.355Z,13.13
2022-10-23T19:09:19.482Z,13.14
2022-10-23T19:12:21.724Z,13.15
2022-10-23T19:15:23.130Z,13.10
2022-10-23T19:18:24.747Z,13.10
2022-10-23T19:21:29.379Z,13.10
2022-10-23T19:24:44.804Z,13.08
2022-10-23T19:27:48.043Z,13.07
2022-10-23T19:30:49.375Z,12.88
2022-10-23T19:33:50.707Z,12.98
2022-10-23T19:36:53.349Z,13.03
2022-10-23T19:39:54.704Z,13.03
2022-10-23T19:42:56.104Z,13.00
2022-10-23T19:46:00.777Z,13.04
2022-10-23T19:49:02.188Z,13.06
2022-10-23T19:52:03.660Z,13.15
2022-10-23T19:55:06.724Z,13.25
2022-10-23T19:58:08.115Z,13.28
2022-10-23T20:01:16.143Z,13.36
2022-10-23T20:04:18.459Z,13.40
2022-10-23T20:07:19.811Z,13.42
2022-10-23T20:10:21.295Z,13.43
2022-10-23T20:13:23.078Z,13.44
2022-10-23T20:16:31.282Z,13.47
2022-10-23T20:19:32.637Z,13.48
2022-10-23T20:22:34.061Z,13.47
2022-10-23T20:25:35.387Z,13.55
2022-10-23T20:28:37.702Z,13.61
2022-10-23T20:31:39.122Z,13.60
2022-10-23T20:34:40.470Z,13.57
2022-10-23T20:37:42.155Z,13.56
2022-10-23T20:40:43.698Z,13.58
2022-10-23T20:43:45.040Z,13.65
2022-10-23T20:46:47.180Z,13.65
2022-10-23T20:49:48.531Z,13.63
2022-10-23T20:52:50.559Z,13.66
2022-10-23T20:55:51.886Z,13.73
2022-10-23T20:58:53.211Z,13.78
2022-10-23T21:01:55.596Z,13.75
2022-10-23T21:04:57.031Z,13.74
2022-10-23T21:07:58.404Z,13.78
2022-10-23T21:11:00.073Z,13.79
2022-10-23T21:14:01.768Z,13.80
2022-10-23T21:17:05.025Z,13.82
2022-10-23T21:20:06.589Z,13.65
2022-10-23T21:23:07.970Z,13.71
2022-10-23T21:26:09.368Z,13.71
2022-10-23T21:29:20.166Z,13.69
2022-10-23T21:32:21.948Z,13.66
2022-10-23T21:35:25.321Z,13.63
2022-10-23T21:38:29.708Z,13.61
2022-10-23T21:41:33.898Z,13.57
2022-10-23T21:44:35.339Z,13.55
2022-10-23T21:47:37.934Z,13.51
2022-10-23T21:50:39.366Z,13.45
2022-10-23T21:53:40.741Z,13.41
2022-10-23T21:56:47.823Z,13.37
2022-10-23T21:59:49.286Z,13.32
2022-10-23T22:02:51.129Z,13.34
2022-10-23T22:05:52.526Z,13.34
2022-10-23T22:08:55.615Z,13.36
2022-10-23T22:11:57.486Z,13.35
2022-10-23T22:14:58.815Z,13.34
2022-10-23T22:18:00.199Z,13.42
2022-10-23T22:21:04.231Z,13.51
2022-10-23T22:24:06.011Z,13.48
2022-10-23T22:27:07.402Z,13.47
2022-10-23T22:30:09.112Z,13.40
2022-10-23T22:33:10.459Z,13.32
2022-10-23T22:36:12.123Z,13.27
2022-10-23T22:39:16.331Z,13.20
2022-10-23T22:42:17.871Z,13.16
2022-10-23T22:45:19.312Z,13.16
2022-10-23T22:48:20.655Z,13.22
2022-10-23T22:51:25.319Z,13.28
2022-10-23T22:54:26.831Z,13.31
2022-10-23T22:57:28.182Z,13.38
2022-10-23T23:00:29.532Z,13.47
2022-10-23T23:03:30.999Z,13.61
2022-10-23T23:06:34.564Z,13.64
2022-10-23T23:09:40.656Z,13.61
2022-10-23T23:12:42.042Z,13.54
2022-10-23T23:15:43.396Z,13.47
2022-10-23T23:18:44.880Z,13.42
2022-10-23T23:21:46.375Z,13.38
2022-10-23T23:24:47.753Z,13.30
2022-10-23T23:27:49.112Z,13.24
2022-10-23T23:30:50.495Z,13.20
2022-10-23T23:33:53.653Z,13.14
2022-10-23T23:36:54.970Z,12.91
2022-10-23T23:39:56.379Z,12.98
2022-10-23T23:42:57.826Z,13.00
2022-10-23T23:45:59.237Z,13.04
2022-10-23T23:49:00.593Z,13.06
2022-10-23T23:52:02.025Z,13.08
2022-10-23T23:55:04.575Z,13.08
2022-10-23T23:58:05.934Z,13.09
